sensor_id;sensor_type;location;lat;lon;timestamp;P1;durP1;ratioP1;P2;durP2;ratioP2
1613;SDS011;800;48.824;9.346;2024-03-29T00:00:39;1.90;;;1.47;;
1613;SDS011;800;48.824;9.346;2024-03-29T00:03:06;5.00;;;1.47;;
1613;SDS011;800;48.824;9.346;2024-03-29T00:05:32;2.60;;;1.83;;
1613;SDS011;800;48.824;9.346;2024-03-29T00:07:58;1.50;;;1.40;;
1613;SDS011;800;48.824;9.346;2024-03-29T00:10:24;1.60;;;1.23;;
1613;SDS011;800;48.824;9.346;2024-03-29T00:12:52;1.90;;;1.70;;
1613;SDS011;800;48.824;9.346;2024-03-29T00:15:18;4.53;;;2.00;;
1613;SDS011;800;48.824;9.346;2024-03-29T00:17:44;2.03;;;1.40;;
1613;SDS011;800;48.824;9.346;2024-03-29T00:20:09;1.40;;;1.30;;
1613;SDS011;800;48.824;9.346;2024-03-29T00:22:36;1.73;;;1.33;;
1613;SDS011;800;48.824;9.346;2024-03-29T00:25:02;1.70;;;1.40;;
1613;SDS011;800;48.824;9.346;2024-03-29T00:27:28;2.23;;;1.23;;
1613;SDS011;800;48.824;9.346;2024-03-29T00:29:54;1.57;;;1.27;;
1613;SDS011;800;48.824;9.346;2024-03-29T00:32:20;2.80;;;1.20;;
1613;SDS011;800;48.824;9.346;2024-03-29T00:34:49;1.90;;;1.70;;
1613;SDS011;800;48.824;9.346;2024-03-29T00:37:15;1.10;;;1.00;;
1613;SDS011;800;48.824;9.346;2024-03-29T00:39:41;1.20;;;1.10;;
1613;SDS011;800;48.824;9.346;2024-03-29T00:42:07;1.73;;;1.33;;
1613;SDS011;800;48.824;9.346;2024-03-29T00:44:40;2.13;;;1.10;;
1613;SDS011;800;48.824;9.346;2024-03-29T00:47:08;1.23;;;1.13;;
1613;SDS011;800;48.824;9.346;2024-03-29T00:49:34;2.10;;;1.10;;
1613;SDS011;800;48.824;9.346;2024-03-29T00:52:00;1.87;;;1.30;;
1613;SDS011;800;48.824;9.346;2024-03-29T00:54:27;1.00;;;0.93;;
1613;SDS011;800;48.824;9.346;2024-03-29T00:56:52;1.47;;;1.10;;
1613;SDS011;800;48.824;9.346;2024-03-29T00:59:18;1.40;;;1.00;;
1613;SDS011;800;48.824;9.346;2024-03-29T01:01:45;1.40;;;1.00;;
1613;SDS011;800;48.824;9.346;2024-03-29T01:04:11;0.80;;;0.80;;
1613;SDS011;800;48.824;9.346;2024-03-29T01:06:38;1.57;;;1.10;;
1613;SDS011;800;48.824;9.346;2024-03-29T01:09:05;1.53;;;0.90;;
1613;SDS011;800;48.824;9.346;2024-03-29T01:11:31;3.50;;;1.07;;
1613;SDS011;800;48.824;9.346;2024-03-29T01:13:57;2.80;;;2.23;;
1613;SDS011;800;48.824;9.346;2024-03-29T01:16:23;3.23;;;1.50;;
1613;SDS011;800;48.824;9.346;2024-03-29T01:18:49;1.73;;;1.10;;
1613;SDS011;800;48.824;9.346;2024-03-29T01:21:16;1.40;;;0.80;;
1613;SDS011;800;48.824;9.346;2024-03-29T01:23:43;1.60;;;1.13;;
1613;SDS011;800;48.824;9.346;2024-03-29T01:26:08;1.20;;;1.10;;
1613;SDS011;800;48.824;9.346;2024-03-29T01:28:36;3.17;;;1.50;;
1613;SDS011;800;48.824;9.346;2024-03-29T01:31:02;1.80;;;1.30;;
1613;SDS011;800;48.824;9.346;2024-03-29T01:33:28;2.83;;;1.20;;
1613;SDS011;800;48.824;9.346;2024-03-29T01:35:57;2.13;;;1.50;;
1613;SDS011;800;48.824;9.346;2024-03-29T01:38:23;1.10;;;1.00;;
1613;SDS011;800;48.824;9.346;2024-03-29T01:40:48;2.10;;;1.00;;
1613;SDS011;800;48.824;9.346;2024-03-29T01:43:14;4.83;;;1.00;;
1613;SDS011;800;48.824;9.346;2024-03-29T01:45:39;1.57;;;1.40;;
1613;SDS011;800;48.824;9.346;2024-03-29T01:48:07;2.37;;;1.50;;
1613;SDS011;800;48.824;9.346;2024-03-29T01:50:34;2.10;;;1.10;;
1613;SDS011;800;48.824;9.346;2024-03-29T01:53:01;1.47;;;1.17;;
1613;SDS011;800;48.824;9.346;2024-03-29T01:55:28;1.20;;;0.90;;
1613;SDS011;800;48.824;9.346;2024-03-29T01:57:54;1.23;;;1.10;;
1613;SDS011;800;48.824;9.346;2024-03-29T02:00:21;2.30;;;1.20;;
1613;SDS011;800;48.824;9.346;2024-03-29T02:02:47;1.33;;;0.93;;
1613;SDS011;800;48.824;9.346;2024-03-29T02:05:13;2.10;;;0.97;;
1613;SDS011;800;48.824;9.346;2024-03-29T02:07:39;1.23;;;0.70;;
1613;SDS011;800;48.824;9.346;2024-03-29T02:10:05;1.17;;;0.90;;
1613;SDS011;800;48.824;9.346;2024-03-29T02:12:33;1.30;;;0.90;;
1613;SDS011;800;48.824;9.346;2024-03-29T02:14:58;2.07;;;1.57;;
1613;SDS011;800;48.824;9.346;2024-03-29T02:17:27;1.03;;;0.80;;
1613;SDS011;800;48.824;9.346;2024-03-29T02:19:52;0.77;;;0.70;;
1613;SDS011;800;48.824;9.346;2024-03-29T02:22:18;1.10;;;0.90;;
1613;SDS011;800;48.824;9.346;2024-03-29T02:24:47;1.70;;;0.90;;
1613;SDS011;800;48.824;9.346;2024-03-29T02:27:13;1.70;;;1.07;;
1613;SDS011;800;48.824;9.346;2024-03-29T02:29:39;0.70;;;0.70;;
1613;SDS011;800;48.824;9.346;2024-03-29T02:32:04;0.90;;;0.80;;
1613;SDS011;800;48.824;9.346;2024-03-29T02:34:30;1.20;;;1.10;;
1613;SDS011;800;48.824;9.346;2024-03-29T02:36:56;0.60;;;0.60;;
1613;SDS011;800;48.824;9.346;2024-03-29T02:39:22;1.80;;;0.83;;
1613;SDS011;800;48.824;9.346;2024-03-29T02:41:48;1.03;;;0.97;;
1613;SDS011;800;48.824;9.346;2024-03-29T02:44:13;0.70;;;0.60;;
1613;SDS011;800;48.824;9.346;2024-03-29T02:46:40;1.50;;;0.80;;
1613;SDS011;800;48.824;9.346;2024-03-29T02:49:07;1.03;;;0.70;;
1613;SDS011;800;48.824;9.346;2024-03-29T02:51:32;1.30;;;0.77;;
1613;SDS011;800;48.824;9.346;2024-03-29T02:53:58;2.40;;;1.00;;
1613;SDS011;800;48.824;9.346;2024-03-29T02:56:23;0.77;;;0.73;;
1613;SDS011;800;48.824;9.346;2024-03-29T02:58:49;3.07;;;1.77;;
1613;SDS011;800;48.824;9.346;2024-03-29T03:01:15;0.90;;;0.80;;
1613;SDS011;800;48.824;9.346;2024-03-29T03:03:40;1.20;;;0.80;;
1613;SDS011;800;48.824;9.346;2024-03-29T03:06:06;0.90;;;0.80;;
1613;SDS011;800;48.824;9.346;2024-03-29T03:08:31;0.73;;;0.73;;
1613;SDS011;800;48.824;9.346;2024-03-29T03:11:15;1.20;;;1.10;;
1613;SDS011;800;48.824;9.346;2024-03-29T03:13:41;2.77;;;1.60;;
1613;SDS011;800;48.824;9.346;2024-03-29T03:16:08;1.50;;;0.83;;
1613;SDS011;800;48.824;9.346;2024-03-29T03:18:33;2.20;;;0.80;;
1613;SDS011;800;48.824;9.346;2024-03-29T03:20:59;0.67;;;0.67;;
1613;SDS011;800;48.824;9.346;2024-03-29T03:23:24;4.63;;;0.80;;
1613;SDS011;800;48.824;9.346;2024-03-29T03:25:57;0.80;;;0.70;;
1613;SDS011;800;48.824;9.346;2024-03-29T03:28:30;1.23;;;0.67;;
1613;SDS011;800;48.824;9.346;2024-03-29T03:30:55;1.33;;;0.80;;
1613;SDS011;800;48.824;9.346;2024-03-29T03:33:21;0.87;;;0.50;;
1613;SDS011;800;48.824;9.346;2024-03-29T03:35:47;0.70;;;0.70;;
1613;SDS011;800;48.824;9.346;2024-03-29T03:38:13;0.90;;;0.70;;
1613;SDS011;800;48.824;9.346;2024-03-29T03:40:39;0.93;;;0.60;;
1613;SDS011;800;48.824;9.346;2024-03-29T03:43:05;1.00;;;0.83;;
1613;SDS011;800;48.824;9.346;2024-03-29T03:45:34;0.97;;;0.90;;
1613;SDS011;800;48.824;9.346;2024-03-29T03:48:04;0.97;;;0.80;;
1613;SDS011;800;48.824;9.346;2024-03-29T03:50:30;0.80;;;0.80;;
1613;SDS011;800;48.824;9.346;2024-03-29T03:52:56;1.00;;;0.70;;
1613;SDS011;800;48.824;9.346;2024-03-29T03:55:22;0.60;;;0.50;;
1613;SDS011;800;48.824;9.346;2024-03-29T03:57:48;1.00;;;0.60;;
1613;SDS011;800;48.824;9.346;2024-03-29T04:00:13;0.70;;;0.70;;
1613;SDS011;800;48.824;9.346;2024-03-29T04:02:39;0.80;;;0.80;;
1613;SDS011;800;48.824;9.346;2024-03-29T04:05:06;0.77;;;0.60;;
1613;SDS011;800;48.824;9.346;2024-03-29T04:07:31;0.80;;;0.80;;
1613;SDS011;800;48.824;9.346;2024-03-29T04:09:57;1.00;;;0.90;;
1613;SDS011;800;48.824;9.346;2024-03-29T04:12:23;1.30;;;0.73;;
1613;SDS011;800;48.824;9.346;2024-03-29T04:14:48;1.03;;;0.60;;
1613;SDS011;800;48.824;9.346;2024-03-29T04:17:14;0.73;;;0.63;;
1613;SDS011;800;48.824;9.346;2024-03-29T04:19:39;0.70;;;0.70;;
1613;SDS011;800;48.824;9.346;2024-03-29T04:22:05;0.70;;;0.60;;
1613;SDS011;800;48.824;9.346;2024-03-29T04:24:31;1.30;;;0.90;;
1613;SDS011;800;48.824;9.346;2024-03-29T04:26:56;0.97;;;0.70;;
1613;SDS011;800;48.824;9.346;2024-03-29T04:29:22;0.80;;;0.80;;
1613;SDS011;800;48.824;9.346;2024-03-29T04:31:48;0.60;;;0.60;;
1613;SDS011;800;48.824;9.346;2024-03-29T04:34:14;1.47;;;0.80;;
1613;SDS011;800;48.824;9.346;2024-03-29T04:36:39;0.93;;;0.80;;
1613;SDS011;800;48.824;9.346;2024-03-29T04:39:05;1.53;;;0.90;;
1613;SDS011;800;48.824;9.346;2024-03-29T04:41:31;0.70;;;0.70;;
1613;SDS011;800;48.824;9.346;2024-03-29T04:43:59;2.27;;;0.83;;
1613;SDS011;800;48.824;9.346;2024-03-29T04:46:27;0.60;;;0.60;;
1613;SDS011;800;48.824;9.346;2024-03-29T04:48:54;0.80;;;0.80;;
1613;SDS011;800;48.824;9.346;2024-03-29T04:51:20;0.83;;;0.70;;
1613;SDS011;800;48.824;9.346;2024-03-29T04:53:45;0.90;;;0.90;;
1613;SDS011;800;48.824;9.346;2024-03-29T04:56:11;0.60;;;0.60;;
1613;SDS011;800;48.824;9.346;2024-03-29T04:58:37;1.00;;;0.70;;
1613;SDS011;800;48.824;9.346;2024-03-29T05:01:02;0.70;;;0.60;;
1613;SDS011;800;48.824;9.346;2024-03-29T05:03:28;1.00;;;1.00;;
1613;SDS011;800;48.824;9.346;2024-03-29T05:05:54;1.60;;;0.87;;
1613;SDS011;800;48.824;9.346;2024-03-29T05:08:20;0.80;;;0.70;;
1613;SDS011;800;48.824;9.346;2024-03-29T05:10:47;1.33;;;0.90;;
1613;SDS011;800;48.824;9.346;2024-03-29T05:13:13;1.73;;;0.70;;
1613;SDS011;800;48.824;9.346;2024-03-29T05:15:39;1.43;;;0.70;;
1613;SDS011;800;48.824;9.346;2024-03-29T05:18:04;1.10;;;0.57;;
1613;SDS011;800;48.824;9.346;2024-03-29T05:20:30;0.77;;;0.73;;
1613;SDS011;800;48.824;9.346;2024-03-29T05:22:57;1.20;;;0.70;;
1613;SDS011;800;48.824;9.346;2024-03-29T05:25:23;2.50;;;1.97;;
1613;SDS011;800;48.824;9.346;2024-03-29T05:27:49;1.13;;;0.97;;
1613;SDS011;800;48.824;9.346;2024-03-29T05:30:15;2.60;;;1.30;;
1613;SDS011;800;48.824;9.346;2024-03-29T05:32:41;1.00;;;0.90;;
1613;SDS011;800;48.824;9.346;2024-03-29T05:35:06;0.80;;;0.70;;
1613;SDS011;800;48.824;9.346;2024-03-29T05:37:33;0.90;;;0.80;;
1613;SDS011;800;48.824;9.346;2024-03-29T05:40:00;1.13;;;0.60;;
1613;SDS011;800;48.824;9.346;2024-03-29T05:42:28;1.47;;;0.70;;
1613;SDS011;800;48.824;9.346;2024-03-29T05:44:55;1.63;;;0.70;;
1613;SDS011;800;48.824;9.346;2024-03-29T05:47:21;1.60;;;0.70;;
1613;SDS011;800;48.824;9.346;2024-03-29T05:49:47;1.27;;;0.87;;
1613;SDS011;800;48.824;9.346;2024-03-29T05:52:12;1.40;;;1.30;;
1613;SDS011;800;48.824;9.346;2024-03-29T05:54:39;1.57;;;1.20;;
1613;SDS011;800;48.824;9.346;2024-03-29T05:57:05;2.50;;;1.07;;
1613;SDS011;800;48.824;9.346;2024-03-29T05:59:34;1.43;;;1.27;;
1613;SDS011;800;48.824;9.346;2024-03-29T06:02:00;2.57;;;1.33;;
1613;SDS011;800;48.824;9.346;2024-03-29T06:04:26;1.63;;;1.40;;
1613;SDS011;800;48.824;9.346;2024-03-29T06:06:57;1.50;;;1.27;;
1613;SDS011;800;48.824;9.346;2024-03-29T06:09:33;3.43;;;1.33;;
1613;SDS011;800;48.824;9.346;2024-03-29T06:11:59;2.43;;;1.60;;
1613;SDS011;800;48.824;9.346;2024-03-29T06:14:25;2.20;;;1.60;;
1613;SDS011;800;48.824;9.346;2024-03-29T06:17:09;4.23;;;2.20;;
1613;SDS011;800;48.824;9.346;2024-03-29T06:22:16;1.67;;;0.80;;
1613;SDS011;800;48.824;9.346;2024-03-29T06:24:44;1.47;;;0.97;;
1613;SDS011;800;48.824;9.346;2024-03-29T06:27:10;0.80;;;0.77;;
1613;SDS011;800;48.824;9.346;2024-03-29T06:29:36;0.80;;;0.80;;
1613;SDS011;800;48.824;9.346;2024-03-29T06:32:02;0.90;;;0.90;;
1613;SDS011;800;48.824;9.346;2024-03-29T06:34:30;0.90;;;0.80;;
1613;SDS011;800;48.824;9.346;2024-03-29T06:36:56;2.10;;;0.77;;
1613;SDS011;800;48.824;9.346;2024-03-29T06:39:22;1.10;;;0.80;;
1613;SDS011;800;48.824;9.346;2024-03-29T06:41:47;0.80;;;0.80;;
1613;SDS011;800;48.824;9.346;2024-03-29T06:44:13;1.20;;;1.10;;
1613;SDS011;800;48.824;9.346;2024-03-29T06:46:39;1.77;;;0.80;;
1613;SDS011;800;48.824;9.346;2024-03-29T06:49:04;0.90;;;0.80;;
1613;SDS011;800;48.824;9.346;2024-03-29T06:51:30;1.30;;;1.20;;
1613;SDS011;800;48.824;9.346;2024-03-29T06:53:56;1.10;;;1.10;;
1613;SDS011;800;48.824;9.346;2024-03-29T06:56:21;1.20;;;1.03;;
1613;SDS011;800;48.824;9.346;2024-03-29T06:58:47;0.80;;;0.80;;
1613;SDS011;800;48.824;9.346;2024-03-29T07:01:12;0.70;;;0.70;;
1613;SDS011;800;48.824;9.346;2024-03-29T07:03:38;0.70;;;0.70;;
1613;SDS011;800;48.824;9.346;2024-03-29T07:06:04;1.00;;;0.90;;
1613;SDS011;800;48.824;9.346;2024-03-29T07:08:30;0.73;;;0.73;;
1613;SDS011;800;48.824;9.346;2024-03-29T07:10:59;0.60;;;0.60;;
1613;SDS011;800;48.824;9.346;2024-03-29T07:13:25;0.70;;;0.70;;
1613;SDS011;800;48.824;9.346;2024-03-29T07:15:52;0.60;;;0.57;;
1613;SDS011;800;48.824;9.346;2024-03-29T07:18:18;1.23;;;0.97;;
1613;SDS011;800;48.824;9.346;2024-03-29T07:20:43;1.20;;;0.93;;
1613;SDS011;800;48.824;9.346;2024-03-29T07:23:09;1.00;;;0.70;;
1613;SDS011;800;48.824;9.346;2024-03-29T07:25:36;1.00;;;0.90;;
1613;SDS011;800;48.824;9.346;2024-03-29T07:28:02;0.90;;;0.70;;
1613;SDS011;800;48.824;9.346;2024-03-29T07:30:27;1.60;;;0.93;;
1613;SDS011;800;48.824;9.346;2024-03-29T07:32:53;2.40;;;1.13;;
1613;SDS011;800;48.824;9.346;2024-03-29T07:35:19;1.00;;;0.90;;
1613;SDS011;800;48.824;9.346;2024-03-29T07:37:44;0.97;;;0.80;;
1613;SDS011;800;48.824;9.346;2024-03-29T07:40:15;1.83;;;0.93;;
1613;SDS011;800;48.824;9.346;2024-03-29T07:42:41;1.20;;;1.10;;
1613;SDS011;800;48.824;9.346;2024-03-29T07:45:07;1.00;;;0.67;;
1613;SDS011;800;48.824;9.346;2024-03-29T07:47:33;4.30;;;2.03;;
1613;SDS011;800;48.824;9.346;2024-03-29T07:49:59;1.00;;;0.90;;
1613;SDS011;800;48.824;9.346;2024-03-29T07:52:24;1.67;;;1.57;;
1613;SDS011;800;48.824;9.346;2024-03-29T07:54:50;2.00;;;1.00;;
1613;SDS011;800;48.824;9.346;2024-03-29T07:57:16;1.27;;;1.00;;
1613;SDS011;800;48.824;9.346;2024-03-29T07:59:42;14.40;;;1.23;;
1613;SDS011;800;48.824;9.346;2024-03-29T08:02:08;1.00;;;1.00;;
1613;SDS011;800;48.824;9.346;2024-03-29T08:04:34;1.30;;;1.07;;
1613;SDS011;800;48.824;9.346;2024-03-29T08:07:00;1.50;;;0.93;;
1613;SDS011;800;48.824;9.346;2024-03-29T08:09:26;1.23;;;0.90;;
1613;SDS011;800;48.824;9.346;2024-03-29T08:11:51;0.80;;;0.80;;
1613;SDS011;800;48.824;9.346;2024-03-29T08:14:17;1.10;;;1.00;;
1613;SDS011;800;48.824;9.346;2024-03-29T08:16:42;1.87;;;1.40;;
1613;SDS011;800;48.824;9.346;2024-03-29T08:19:08;4.30;;;3.53;;
1613;SDS011;800;48.824;9.346;2024-03-29T08:21:34;5.87;;;3.67;;
1613;SDS011;800;48.824;9.346;2024-03-29T08:24:00;2.60;;;2.13;;
1613;SDS011;800;48.824;9.346;2024-03-29T08:26:26;2.90;;;2.60;;
1613;SDS011;800;48.824;9.346;2024-03-29T08:28:54;4.13;;;2.40;;
1613;SDS011;800;48.824;9.346;2024-03-29T08:31:19;4.87;;;2.20;;
1613;SDS011;800;48.824;9.346;2024-03-29T08:33:45;2.10;;;1.90;;
1613;SDS011;800;48.824;9.346;2024-03-29T08:36:10;2.07;;;1.80;;
1613;SDS011;800;48.824;9.346;2024-03-29T08:38:37;4.83;;;1.60;;
1613;SDS011;800;48.824;9.346;2024-03-29T08:41:06;2.23;;;1.90;;
1613;SDS011;800;48.824;9.346;2024-03-29T08:43:32;2.20;;;2.00;;
1613;SDS011;800;48.824;9.346;2024-03-29T08:45:58;1.33;;;1.23;;
1613;SDS011;800;48.824;9.346;2024-03-29T08:48:24;4.40;;;1.50;;
1613;SDS011;800;48.824;9.346;2024-03-29T08:50:52;1.60;;;1.40;;
1613;SDS011;800;48.824;9.346;2024-03-29T08:53:18;4.10;;;1.20;;
1613;SDS011;800;48.824;9.346;2024-03-29T08:55:45;3.37;;;1.30;;
1613;SDS011;800;48.824;9.346;2024-03-29T08:58:13;1.20;;;1.10;;
1613;SDS011;800;48.824;9.346;2024-03-29T09:00:39;1.77;;;1.30;;
1613;SDS011;800;48.824;9.346;2024-03-29T09:03:04;2.20;;;2.00;;
1613;SDS011;800;48.824;9.346;2024-03-29T09:05:30;2.50;;;1.80;;
1613;SDS011;800;48.824;9.346;2024-03-29T09:07:56;1.40;;;1.30;;
1613;SDS011;800;48.824;9.346;2024-03-29T09:10:22;2.60;;;1.33;;
1613;SDS011;800;48.824;9.346;2024-03-29T09:12:49;2.53;;;2.33;;
1613;SDS011;800;48.824;9.346;2024-03-29T09:15:15;15.47;;;12.70;;
1613;SDS011;800;48.824;9.346;2024-03-29T09:17:45;7.73;;;6.63;;
1613;SDS011;800;48.824;9.346;2024-03-29T09:20:11;3.23;;;2.70;;
1613;SDS011;800;48.824;9.346;2024-03-29T09:22:37;1.83;;;1.73;;
1613;SDS011;800;48.824;9.346;2024-03-29T09:25:03;2.50;;;2.30;;
1613;SDS011;800;48.824;9.346;2024-03-29T09:27:30;2.80;;;1.77;;
1613;SDS011;800;48.824;9.346;2024-03-29T09:29:58;3.30;;;2.00;;
1613;SDS011;800;48.824;9.346;2024-03-29T09:32:24;2.20;;;1.90;;
1613;SDS011;800;48.824;9.346;2024-03-29T09:34:49;3.10;;;2.40;;
1613;SDS011;800;48.824;9.346;2024-03-29T09:37:15;2.57;;;2.37;;
1613;SDS011;800;48.824;9.346;2024-03-29T09:39:42;8.00;;;2.23;;
1613;SDS011;800;48.824;9.346;2024-03-29T09:42:08;3.67;;;2.67;;
1613;SDS011;800;48.824;9.346;2024-03-29T09:44:39;2.50;;;1.83;;
1613;SDS011;800;48.824;9.346;2024-03-29T09:47:04;3.17;;;2.60;;
1613;SDS011;800;48.824;9.346;2024-03-29T09:49:32;2.40;;;2.20;;
1613;SDS011;800;48.824;9.346;2024-03-29T09:51:59;2.33;;;1.63;;
1613;SDS011;800;48.824;9.346;2024-03-29T09:54:28;2.23;;;2.00;;
1613;SDS011;800;48.824;9.346;2024-03-29T09:56:57;3.50;;;2.00;;
1613;SDS011;800;48.824;9.346;2024-03-29T09:59:23;2.33;;;1.97;;
1613;SDS011;800;48.824;9.346;2024-03-29T10:01:51;3.20;;;2.90;;
1613;SDS011;800;48.824;9.346;2024-03-29T10:04:18;2.93;;;2.00;;
1613;SDS011;800;48.824;9.346;2024-03-29T10:06:46;4.33;;;2.50;;
1613;SDS011;800;48.824;9.346;2024-03-29T10:09:18;1.60;;;1.50;;
1613;SDS011;800;48.824;9.346;2024-03-29T10:11:45;1.80;;;1.67;;
1613;SDS011;800;48.824;9.346;2024-03-29T10:14:11;2.30;;;2.10;;
1613;SDS011;800;48.824;9.346;2024-03-29T10:16:36;1.90;;;1.70;;
1613;SDS011;800;48.824;9.346;2024-03-29T10:19:03;1.57;;;1.47;;
1613;SDS011;800;48.824;9.346;2024-03-29T10:21:29;2.57;;;1.70;;
1613;SDS011;800;48.824;9.346;2024-03-29T10:23:54;2.93;;;2.13;;
1613;SDS011;800;48.824;9.346;2024-03-29T10:26:23;4.43;;;4.03;;
1613;SDS011;800;48.824;9.346;2024-03-29T10:28:50;4.80;;;2.20;;
1613;SDS011;800;48.824;9.346;2024-03-29T10:31:16;1.90;;;1.80;;
1613;SDS011;800;48.824;9.346;2024-03-29T10:33:42;2.53;;;1.50;;
1613;SDS011;800;48.824;9.346;2024-03-29T10:36:09;4.50;;;2.40;;
1613;SDS011;800;48.824;9.346;2024-03-29T10:38:37;6.03;;;5.43;;
1613;SDS011;800;48.824;9.346;2024-03-29T10:41:03;10.07;;;8.30;;
1613;SDS011;800;48.824;9.346;2024-03-29T10:43:31;6.90;;;6.10;;
1613;SDS011;800;48.824;9.346;2024-03-29T10:45:58;2.80;;;2.60;;
1613;SDS011;800;48.824;9.346;2024-03-29T10:48:26;3.40;;;3.10;;
1613;SDS011;800;48.824;9.346;2024-03-29T10:50:53;3.10;;;2.80;;
1613;SDS011;800;48.824;9.346;2024-03-29T10:53:19;2.07;;;1.87;;
1613;SDS011;800;48.824;9.346;2024-03-29T10:55:47;2.20;;;2.10;;
1613;SDS011;800;48.824;9.346;2024-03-29T10:58:18;2.90;;;2.00;;
1613;SDS011;800;48.824;9.346;2024-03-29T11:00:49;2.87;;;1.73;;
1613;SDS011;800;48.824;9.346;2024-03-29T11:06:00;2.30;;;2.10;;
1613;SDS011;800;48.824;9.346;2024-03-29T11:08:31;2.50;;;2.30;;
1613;SDS011;800;48.824;9.346;2024-03-29T11:10:59;2.10;;;1.90;;
1613;SDS011;800;48.824;9.346;2024-03-29T11:13:33;2.73;;;2.23;;
1613;SDS011;800;48.824;9.346;2024-03-29T11:16:05;2.53;;;1.93;;
1613;SDS011;800;48.824;9.346;2024-03-29T11:18:32;3.07;;;1.93;;
1613;SDS011;800;48.824;9.346;2024-03-29T11:20:59;1.50;;;1.40;;
1613;SDS011;800;48.824;9.346;2024-03-29T11:23:26;2.10;;;2.00;;
1613;SDS011;800;48.824;9.346;2024-03-29T11:25:53;1.77;;;1.47;;
1613;SDS011;800;48.824;9.346;2024-03-29T11:28:23;2.00;;;1.90;;
1613;SDS011;800;48.824;9.346;2024-03-29T11:31:05;2.00;;;1.80;;
1613;SDS011;800;48.824;9.346;2024-03-29T11:33:43;2.70;;;2.20;;
1613;SDS011;800;48.824;9.346;2024-03-29T11:38:50;2.27;;;1.90;;
1613;SDS011;800;48.824;9.346;2024-03-29T11:41:17;3.40;;;1.77;;
1613;SDS011;800;48.824;9.346;2024-03-29T11:43:46;2.33;;;2.13;;
1613;SDS011;800;48.824;9.346;2024-03-29T11:46:13;3.30;;;2.77;;
1613;SDS011;800;48.824;9.346;2024-03-29T11:48:39;3.00;;;2.70;;
1613;SDS011;800;48.824;9.346;2024-03-29T11:51:08;2.60;;;2.13;;
1613;SDS011;800;48.824;9.346;2024-03-29T11:53:37;2.10;;;1.90;;
1613;SDS011;800;48.824;9.346;2024-03-29T11:56:03;2.10;;;1.90;;
1613;SDS011;800;48.824;9.346;2024-03-29T11:58:30;1.80;;;1.70;;
1613;SDS011;800;48.824;9.346;2024-03-29T12:00:57;2.90;;;2.00;;
1613;SDS011;800;48.824;9.346;2024-03-29T12:03:25;1.80;;;1.60;;
1613;SDS011;800;48.824;9.346;2024-03-29T12:05:52;2.10;;;1.53;;
1613;SDS011;800;48.824;9.346;2024-03-29T12:08:20;2.00;;;1.70;;
1613;SDS011;800;48.824;9.346;2024-03-29T12:10:47;2.10;;;1.90;;
1613;SDS011;800;48.824;9.346;2024-03-29T12:13:15;1.77;;;1.67;;
1613;SDS011;800;48.824;9.346;2024-03-29T12:15:41;1.40;;;1.30;;
1613;SDS011;800;48.824;9.346;2024-03-29T12:18:07;1.57;;;1.40;;
1613;SDS011;800;48.824;9.346;2024-03-29T12:20:33;1.50;;;1.40;;
1613;SDS011;800;48.824;9.346;2024-03-29T12:23:03;1.43;;;1.33;;
1613;SDS011;800;48.824;9.346;2024-03-29T12:25:31;1.57;;;1.30;;
1613;SDS011;800;48.824;9.346;2024-03-29T12:27:58;4.60;;;1.53;;
1613;SDS011;800;48.824;9.346;2024-03-29T12:30:25;2.70;;;1.53;;
1613;SDS011;800;48.824;9.346;2024-03-29T12:35:27;1.83;;;1.60;;
1613;SDS011;800;48.824;9.346;2024-03-29T12:37:54;1.83;;;1.47;;
1613;SDS011;800;48.824;9.346;2024-03-29T12:40:21;2.07;;;1.40;;
1613;SDS011;800;48.824;9.346;2024-03-29T12:42:50;1.53;;;1.33;;
1613;SDS011;800;48.824;9.346;2024-03-29T12:45:19;1.90;;;1.40;;
1613;SDS011;800;48.824;9.346;2024-03-29T12:47:45;1.73;;;1.30;;
1613;SDS011;800;48.824;9.346;2024-03-29T12:50:28;1.70;;;1.23;;
1613;SDS011;800;48.824;9.346;2024-03-29T12:52:56;1.87;;;1.40;;
1613;SDS011;800;48.824;9.346;2024-03-29T12:55:25;1.10;;;0.93;;
1613;SDS011;800;48.824;9.346;2024-03-29T12:57:56;1.83;;;1.20;;
1613;SDS011;800;48.824;9.346;2024-03-29T13:00:25;1.10;;;1.00;;
1613;SDS011;800;48.824;9.346;2024-03-29T13:02:51;1.20;;;1.10;;
1613;SDS011;800;48.824;9.346;2024-03-29T13:05:18;1.17;;;0.90;;
1613;SDS011;800;48.824;9.346;2024-03-29T13:07:43;1.27;;;1.00;;
1613;SDS011;800;48.824;9.346;2024-03-29T13:10:09;1.43;;;1.10;;
1613;SDS011;800;48.824;9.346;2024-03-29T13:12:39;1.20;;;1.10;;
1613;SDS011;800;48.824;9.346;2024-03-29T13:15:22;2.47;;;1.43;;
1613;SDS011;800;48.824;9.346;2024-03-29T13:17:52;1.30;;;1.20;;
1613;SDS011;800;48.824;9.346;2024-03-29T13:20:18;2.40;;;1.80;;
1613;SDS011;800;48.824;9.346;2024-03-29T13:22:45;1.57;;;1.33;;
1613;SDS011;800;48.824;9.346;2024-03-29T13:25:15;4.30;;;1.20;;
1613;SDS011;800;48.824;9.346;2024-03-29T13:27:45;1.37;;;1.07;;
1613;SDS011;800;48.824;9.346;2024-03-29T13:30:18;1.40;;;1.30;;
1613;SDS011;800;48.824;9.346;2024-03-29T13:32:45;1.10;;;1.00;;
1613;SDS011;800;48.824;9.346;2024-03-29T13:35:10;1.23;;;1.00;;
1613;SDS011;800;48.824;9.346;2024-03-29T13:37:40;1.37;;;1.07;;
1613;SDS011;800;48.824;9.346;2024-03-29T13:40:12;1.27;;;1.10;;
1613;SDS011;800;48.824;9.346;2024-03-29T13:42:39;1.20;;;1.10;;
1613;SDS011;800;48.824;9.346;2024-03-29T13:45:05;1.40;;;1.07;;
1613;SDS011;800;48.824;9.346;2024-03-29T13:47:32;1.53;;;1.10;;
1613;SDS011;800;48.824;9.346;2024-03-29T13:49:58;1.30;;;1.20;;
1613;SDS011;800;48.824;9.346;2024-03-29T13:52:24;1.40;;;1.00;;
1613;SDS011;800;48.824;9.346;2024-03-29T13:54:49;1.20;;;1.10;;
1613;SDS011;800;48.824;9.346;2024-03-29T13:57:18;2.07;;;0.93;;
1613;SDS011;800;48.824;9.346;2024-03-29T13:59:44;1.60;;;0.93;;
1613;SDS011;800;48.824;9.346;2024-03-29T14:02:17;1.50;;;1.00;;
1613;SDS011;800;48.824;9.346;2024-03-29T14:04:43;2.23;;;1.10;;
1613;SDS011;800;48.824;9.346;2024-03-29T14:07:09;1.63;;;1.00;;
1613;SDS011;800;48.824;9.346;2024-03-29T14:09:39;1.70;;;1.20;;
1613;SDS011;800;48.824;9.346;2024-03-29T14:12:08;1.47;;;1.30;;
1613;SDS011;800;48.824;9.346;2024-03-29T14:14:35;2.33;;;1.30;;
1613;SDS011;800;48.824;9.346;2024-03-29T14:17:01;1.00;;;1.00;;
1613;SDS011;800;48.824;9.346;2024-03-29T14:19:31;4.43;;;1.20;;
1613;SDS011;800;48.824;9.346;2024-03-29T14:22:01;1.17;;;1.07;;
1613;SDS011;800;48.824;9.346;2024-03-29T14:24:27;1.30;;;1.20;;
1613;SDS011;800;48.824;9.346;2024-03-29T14:26:55;1.17;;;1.00;;
1613;SDS011;800;48.824;9.346;2024-03-29T14:29:23;3.80;;;2.30;;
1613;SDS011;800;48.824;9.346;2024-03-29T14:31:49;1.47;;;1.37;;
1613;SDS011;800;48.824;9.346;2024-03-29T14:34:15;1.43;;;1.33;;
1613;SDS011;800;48.824;9.346;2024-03-29T14:36:42;1.10;;;1.00;;
1613;SDS011;800;48.824;9.346;2024-03-29T14:39:08;6.90;;;3.43;;
1613;SDS011;800;48.824;9.346;2024-03-29T14:41:34;1.90;;;1.30;;
1613;SDS011;800;48.824;9.346;2024-03-29T14:44:01;1.10;;;1.03;;
1613;SDS011;800;48.824;9.346;2024-03-29T14:46:27;4.30;;;2.73;;
1613;SDS011;800;48.824;9.346;2024-03-29T14:48:53;2.63;;;2.07;;
1613;SDS011;800;48.824;9.346;2024-03-29T14:51:19;1.77;;;1.50;;
1613;SDS011;800;48.824;9.346;2024-03-29T14:53:45;3.03;;;2.17;;
1613;SDS011;800;48.824;9.346;2024-03-29T14:56:14;3.40;;;1.80;;
1613;SDS011;800;48.824;9.346;2024-03-29T14:58:43;2.10;;;1.33;;
1613;SDS011;800;48.824;9.346;2024-03-29T15:01:10;1.87;;;1.40;;
1613;SDS011;800;48.824;9.346;2024-03-29T15:03:35;1.40;;;1.30;;
1613;SDS011;800;48.824;9.346;2024-03-29T15:06:01;4.53;;;1.53;;
1613;SDS011;800;48.824;9.346;2024-03-29T15:08:27;3.93;;;3.23;;
1613;SDS011;800;48.824;9.346;2024-03-29T15:10:56;2.67;;;1.97;;
1613;SDS011;800;48.824;9.346;2024-03-29T15:13:22;3.37;;;3.00;;
1613;SDS011;800;48.824;9.346;2024-03-29T15:15:57;2.30;;;2.10;;
1613;SDS011;800;48.824;9.346;2024-03-29T15:18:27;1.70;;;1.57;;
1613;SDS011;800;48.824;9.346;2024-03-29T15:20:53;1.73;;;1.40;;
1613;SDS011;800;48.824;9.346;2024-03-29T15:23:23;2.03;;;1.07;;
1613;SDS011;800;48.824;9.346;2024-03-29T15:25:52;1.90;;;1.40;;
1613;SDS011;800;48.824;9.346;2024-03-29T15:28:19;1.30;;;1.20;;
1613;SDS011;800;48.824;9.346;2024-03-29T15:31:10;1.50;;;1.40;;
1613;SDS011;800;48.824;9.346;2024-03-29T15:33:37;1.40;;;1.23;;
1613;SDS011;800;48.824;9.346;2024-03-29T15:36:04;1.00;;;1.00;;
1613;SDS011;800;48.824;9.346;2024-03-29T15:38:30;1.53;;;1.43;;